Weather at Ninoy Aquino International Airport

Public forecast

Using degrees Celsius for public forecast. Weather courtesy of forecast.io.

Current aviation weather report (METAR) for Ninoy Aquino International Airport

Retrieved 2021/07/29 02:00 UTC (47 minutes ago):

RPLL 290200Z 28011KT 9999 -RA BKN015 OVC080 27/26 Q1008 TEMPO 7000 RMK A2977

Aviation forecast (TAF) for Ninoy Aquino International Airport

Retrieved 2021-07-29 00:22 UTC (2 hours ago):

TAF RPLL 282300Z 2900/3006 25012KT 9000 -RA SCT023 BKN090 TX30/2906Z TN25/2921Z TEMPO 2900/2906 26020KT 5000 RA BKN018 OVC070 TEMPO 2906/2912 24020KT 7000 -RA SCT022 OVC080